createdAt,value
2023-02-18T00:01:21.081Z,97.20
2023-02-18T00:03:48.913Z,97.20
2023-02-18T00:06:21.104Z,97.10
2023-02-18T00:08:49.307Z,97.10
2023-02-18T00:11:18.031Z,97.10
2023-02-18T00:13:51.293Z,97.00
2023-02-18T00:16:18.645Z,97.10
2023-02-18T00:18:46.035Z,97.00
2023-02-18T00:21:13.641Z,97.00
2023-02-18T00:23:43.626Z,97.00
2023-02-18T00:26:13.488Z,96.90
2023-02-18T00:28:42.202Z,96.90
2023-02-18T00:31:15.061Z,96.90
2023-02-18T00:33:43.017Z,96.90
2023-02-18T00:36:13.295Z,97.00
2023-02-18T00:38:45.152Z,96.90
2023-02-18T00:41:12.364Z,96.90
2023-02-18T00:43:39.713Z,96.80
2023-02-18T00:46:07.944Z,96.90
2023-02-18T00:48:35.985Z,96.90
2023-02-18T00:51:04.621Z,96.80
2023-02-18T00:53:32.103Z,96.70
2023-02-18T00:55:59.612Z,96.80
2023-02-18T00:58:27.479Z,96.70
2023-02-18T01:00:55.837Z,96.70
2023-02-18T01:03:24.190Z,96.60
2023-02-18T01:05:52.485Z,96.70
2023-02-18T01:08:21.782Z,96.60
2023-02-18T01:10:54.455Z,96.60
2023-02-18T01:13:23.931Z,96.60
2023-02-18T01:15:51.714Z,96.60
2023-02-18T01:18:19.027Z,96.60
2023-02-18T01:20:46.978Z,96.50
2023-02-18T01:23:16.833Z,96.50
2023-02-18T01:25:44.882Z,96.40
2023-02-18T01:28:14.066Z,96.50
2023-02-18T01:30:41.997Z,96.40
2023-02-18T01:33:10.026Z,96.40
2023-02-18T01:35:42.360Z,96.40
2023-02-18T01:38:09.916Z,96.40
2023-02-18T01:40:44.222Z,96.30
2023-02-18T01:43:12.756Z,96.40
2023-02-18T01:45:57.840Z,96.50
2023-02-18T01:48:42.654Z,96.40
2023-02-18T01:51:16.711Z,96.50
2023-02-18T01:53:55.785Z,96.50
2023-02-18T01:56:34.644Z,96.40
2023-02-18T01:59:08.361Z,96.50
2023-02-18T02:01:36.170Z,96.40
2023-02-18T02:04:03.722Z,96.40
2023-02-18T02:06:31.508Z,96.40
2023-02-18T02:09:02.040Z,96.40
2023-02-18T02:11:36.224Z,96.40
2023-02-18T02:14:24.747Z,96.40
2023-02-18T02:17:06.087Z,96.40
2023-02-18T02:19:54.661Z,96.40
2023-02-18T02:22:30.972Z,96.40
2023-02-18T02:25:26.171Z,96.30
2023-02-18T02:28:21.181Z,96.30
2023-02-18T02:31:03.455Z,96.30
2023-02-18T02:33:37.349Z,96.30
2023-02-18T02:36:23.411Z,96.20
2023-02-18T02:39:19.648Z,96.30
2023-02-18T02:42:31.171Z,96.20
2023-02-18T02:45:06.672Z,96.20
2023-02-18T02:48:01.148Z,96.10
2023-02-18T02:50:45.562Z,96.20
2023-02-18T02:53:27.399Z,96.20
2023-02-18T02:55:57.489Z,96.20
2023-02-18T02:58:25.869Z,96.20
2023-02-18T03:01:22.359Z,96.20
2023-02-18T03:03:58.864Z,96.20
2023-02-18T03:06:45.601Z,96.20
2023-02-18T03:09:32.305Z,96.30
2023-02-18T03:12:08.840Z,96.30
2023-02-18T03:15:08.248Z,96.20
2023-02-18T03:17:41.528Z,96.30
2023-02-18T03:20:16.635Z,96.30
2023-02-18T03:22:48.822Z,96.60
2023-02-18T03:25:18.367Z,96.30
2023-02-18T03:27:54.325Z,96.30
2023-02-18T03:30:52.891Z,96.20
2023-02-18T03:33:33.042Z,96.20
2023-02-18T03:36:01.512Z,96.30
2023-02-18T03:38:35.421Z,96.30
2023-02-18T03:41:02.946Z,96.60
2023-02-18T03:43:31.307Z,96.20
2023-02-18T03:46:00.920Z,96.20
2023-02-18T03:48:28.475Z,96.20
2023-02-18T03:50:55.803Z,96.10
2023-02-18T03:53:23.304Z,96.20
2023-02-18T03:55:51.151Z,96.20
2023-02-18T03:58:18.441Z,96.10
2023-02-18T04:00:45.964Z,96.20
2023-02-18T04:03:13.327Z,96.20
2023-02-18T04:05:40.698Z,96.30
2023-02-18T04:08:08.323Z,96.30
2023-02-18T04:10:35.745Z,96.30
2023-02-18T04:13:03.145Z,96.30
2023-02-18T04:15:30.765Z,96.40
2023-02-18T04:17:58.122Z,96.50
2023-02-18T04:20:25.403Z,96.50
2023-02-18T04:22:52.710Z,96.50
2023-02-18T04:25:20.039Z,96.60
2023-02-18T04:27:47.621Z,96.60
2023-02-18T04:30:16.773Z,96.60
2023-02-18T04:32:45.800Z,96.60
2023-02-18T04:35:13.105Z,96.70
2023-02-18T04:37:40.503Z,96.70
2023-02-18T04:40:08.523Z,96.80
2023-02-18T04:42:35.842Z,96.80
2023-02-18T04:45:03.550Z,96.80
2023-02-18T04:47:30.970Z,96.80
2023-02-18T04:49:58.260Z,96.80
2023-02-18T04:52:25.761Z,96.80
2023-02-18T04:54:53.121Z,96.80
2023-02-18T04:57:20.502Z,96.80
2023-02-18T04:59:47.808Z,96.80
2023-02-18T05:02:15.208Z,97.20
2023-02-18T05:04:42.526Z,96.80
2023-02-18T05:07:09.771Z,96.80
2023-02-18T05:09:37.086Z,96.80
2023-02-18T05:12:04.598Z,96.90
2023-02-18T05:14:32.024Z,96.80
2023-02-18T05:16:59.392Z,96.90
2023-02-18T05:19:26.732Z,96.90
2023-02-18T05:21:54.196Z,96.80
2023-02-18T05:24:21.586Z,96.80
2023-02-18T05:26:48.872Z,96.80
2023-02-18T05:29:16.179Z,96.80
2023-02-18T05:31:43.703Z,96.90
2023-02-18T05:34:11.063Z,96.80
2023-02-18T05:36:38.380Z,96.80
2023-02-18T05:39:05.752Z,96.80
2023-02-18T05:41:33.204Z,96.70
2023-02-18T05:44:19.195Z,96.80
2023-02-18T05:46:46.654Z,96.80
2023-02-18T05:49:14.124Z,96.80
2023-02-18T05:51:41.558Z,96.80
2023-02-18T05:54:08.899Z,96.70
2023-02-18T05:56:36.392Z,96.70
2023-02-18T05:59:03.882Z,96.70
2023-02-18T06:01:31.371Z,96.60
2023-02-18T06:03:58.766Z,96.60
2023-02-18T06:06:26.191Z,96.70
2023-02-18T06:08:53.548Z,96.80
2023-02-18T06:11:20.911Z,96.70
2023-02-18T06:13:48.157Z,96.80
2023-02-18T06:16:15.699Z,96.70
2023-02-18T06:18:44.320Z,96.70
2023-02-18T06:21:11.679Z,96.70
2023-02-18T06:23:39.041Z,96.60
2023-02-18T06:26:06.724Z,96.60
2023-02-18T06:28:34.487Z,96.60
2023-02-18T06:31:02.078Z,96.60
2023-02-18T06:33:29.693Z,96.60
2023-02-18T06:36:00.084Z,96.50
2023-02-18T06:38:27.870Z,96.50
2023-02-18T06:40:55.351Z,96.40
2023-02-18T06:43:22.925Z,96.40
2023-02-18T06:45:50.364Z,96.40
2023-02-18T06:48:17.921Z,96.40
2023-02-18T06:50:45.321Z,96.40
2023-02-18T06:53:13.114Z,96.30
2023-02-18T06:55:40.544Z,96.40
2023-02-18T06:58:07.828Z,96.30
2023-02-18T07:00:35.834Z,96.40
2023-02-18T07:03:03.844Z,96.40
2023-02-18T07:05:31.169Z,96.40
2023-02-18T07:07:58.507Z,96.40
2023-02-18T07:10:25.958Z,96.50
2023-02-18T07:12:53.981Z,96.50
2023-02-18T07:15:24.366Z,96.50
2023-02-18T07:17:52.524Z,96.50
2023-02-18T07:20:21.047Z,96.50
2023-02-18T07:22:48.477Z,96.50
2023-02-18T07:25:15.852Z,96.60
2023-02-18T07:27:43.182Z,96.50
2023-02-18T07:30:11.288Z,96.50
2023-02-18T07:32:38.742Z,96.60
2023-02-18T07:35:06.561Z,96.60
2023-02-18T07:37:33.825Z,96.70
2023-02-18T07:40:01.154Z,96.60
2023-02-18T07:42:28.467Z,96.70
2023-02-18T07:44:55.990Z,96.70
2023-02-18T07:47:23.590Z,96.70
2023-02-18T07:49:51.120Z,96.70
2023-02-18T07:52:18.480Z,96.70
2023-02-18T07:54:45.843Z,96.70
2023-02-18T07:57:13.226Z,96.80
2023-02-18T07:59:40.604Z,96.80
2023-02-18T08:02:13.824Z,97.60
2023-02-18T08:04:41.112Z,97.60
2023-02-18T08:07:12.187Z,97.70
2023-02-18T08:09:39.744Z,97.90
2023-02-18T08:12:07.389Z,98.00
2023-02-18T08:14:34.676Z,97.80
2023-02-18T08:17:01.994Z,97.70
2023-02-18T08:19:29.476Z,97.60
2023-02-18T08:21:56.780Z,97.80
2023-02-18T08:24:24.144Z,98.40
2023-02-18T08:27:00.314Z,98.40
2023-02-18T08:29:28.934Z,98.30
2023-02-18T08:31:58.347Z,99.00
2023-02-18T08:34:26.540Z,98.70
2023-02-18T08:36:53.972Z,98.60
2023-02-18T08:39:21.293Z,98.60
2023-02-18T08:41:48.554Z,98.30
2023-02-18T08:44:15.941Z,98.20
2023-02-18T08:46:43.392Z,98.10
2023-02-18T08:49:10.734Z,98.10
2023-02-18T08:51:38.245Z,98.00
2023-02-18T08:54:05.676Z,97.90
2023-02-18T08:56:33.594Z,97.90
2023-02-18T08:59:00.969Z,97.80
2023-02-18T09:01:28.411Z,97.80
2023-02-18T09:03:55.834Z,97.80
2023-02-18T09:06:23.480Z,97.90
2023-02-18T09:08:50.936Z,97.80
2023-02-18T09:11:19.634Z,97.80
2023-02-18T09:13:47.108Z,97.70
2023-02-18T09:16:20.151Z,98.00
2023-02-18T09:18:48.564Z,97.90
2023-02-18T09:21:19.088Z,97.90
2023-02-18T09:23:46.437Z,97.80
2023-02-18T09:26:16.958Z,97.90
2023-02-18T09:28:44.500Z,97.70
2023-02-18T09:31:14.801Z,97.70
2023-02-18T09:33:46.194Z,97.60
2023-02-18T09:36:14.277Z,97.60
2023-02-18T09:38:41.609Z,98.00
2023-02-18T09:41:32.032Z,99.40
2023-02-18T09:44:06.113Z,99.40
2023-02-18T09:46:48.556Z,99.90
2023-02-18T09:49:23.531Z,99.70
2023-02-18T09:51:51.347Z,99.70
2023-02-18T09:54:20.309Z,99.90
2023-02-18T09:56:49.106Z,99.90
2023-02-18T09:59:19.259Z,99.90
2023-02-18T10:01:49.470Z,99.90
2023-02-18T10:04:24.031Z,99.90
2023-02-18T10:06:52.709Z,99.90
2023-02-18T10:09:21.924Z,99.90
2023-02-18T10:11:51.872Z,99.90
2023-02-18T10:14:19.199Z,99.90
2023-02-18T10:16:47.185Z,99.90
2023-02-18T10:19:22.244Z,99.90
2023-02-18T10:21:50.048Z,99.90
2023-02-18T10:24:23.012Z,99.90
2023-02-18T10:26:50.228Z,99.90
2023-02-18T10:29:21.434Z,99.90
2023-02-18T10:31:55.667Z,99.90
2023-02-18T10:34:41.810Z,99.90
2023-02-18T10:37:17.805Z,99.90
2023-02-18T10:39:59.947Z,99.90
2023-02-18T10:42:39.593Z,99.90
2023-02-18T10:45:19.116Z,99.90
2023-02-18T10:47:56.604Z,99.90
2023-02-18T10:50:32.229Z,99.90
2023-02-18T10:53:08.489Z,99.90
2023-02-18T10:55:40.035Z,99.90
2023-02-18T10:58:25.919Z,99.90
2023-02-18T11:00:53.538Z,99.90
2023-02-18T11:03:22.318Z,99.90
2023-02-18T11:05:54.480Z,99.90
2023-02-18T11:08:23.089Z,99.90
2023-02-18T11:10:50.494Z,99.90
2023-02-18T11:13:23.367Z,99.90
2023-02-18T11:15:54.758Z,99.90
2023-02-18T11:18:28.685Z,99.90
2023-02-18T11:20:57.938Z,99.90
2023-02-18T11:23:25.752Z,99.90
2023-02-18T11:26:01.408Z,99.90
2023-02-18T11:28:37.810Z,99.90
2023-02-18T11:31:05.426Z,99.90
2023-02-18T11:33:38.784Z,99.90
2023-02-18T11:36:18.043Z,99.90
2023-02-18T11:38:47.770Z,99.90
2023-02-18T11:41:19.940Z,99.90
2023-02-18T11:43:50.016Z,99.90
2023-02-18T11:46:20.341Z,99.90
2023-02-18T11:48:47.972Z,99.90
2023-02-18T11:51:16.375Z,99.90
2023-02-18T11:54:12.686Z,99.90
2023-02-18T11:56:39.898Z,99.90
2023-02-18T11:59:10.388Z,99.90
2023-02-18T12:01:49.387Z,99.90
2023-02-18T12:04:18.131Z,99.90
2023-02-18T12:06:45.296Z,99.90
2023-02-18T12:09:20.719Z,99.90
2023-02-18T12:11:53.075Z,99.90
2023-02-18T12:14:21.491Z,99.90
2023-02-18T12:17:07.261Z,99.90
2023-02-18T12:19:46.533Z,99.90
2023-02-18T12:22:13.679Z,99.90
2023-02-18T12:25:03.836Z,99.90
2023-02-18T12:27:43.306Z,99.90
2023-02-18T12:30:25.590Z,99.90
2023-02-18T12:33:04.911Z,99.90
2023-02-18T12:35:50.975Z,99.90
2023-02-18T12:38:38.565Z,99.90
2023-02-18T12:41:17.317Z,99.90
2023-02-18T12:43:53.552Z,99.90
2023-02-18T12:46:26.559Z,99.90
2023-02-18T12:49:05.801Z,99.90
2023-02-18T12:51:36.451Z,99.90
2023-02-18T12:54:27.200Z,99.90
2023-02-18T12:57:09.138Z,99.90
2023-02-18T12:59:49.576Z,99.90
2023-02-18T13:02:34.807Z,99.90
2023-02-18T13:05:10.843Z,99.90
2023-02-18T13:08:01.302Z,99.90
2023-02-18T13:10:31.392Z,99.90
2023-02-18T13:13:04.190Z,99.90
2023-02-18T13:15:37.973Z,99.90
2023-02-18T13:18:09.037Z,99.90
2023-02-18T13:20:44.521Z,99.90
2023-02-18T13:23:19.189Z,99.90
2023-02-18T13:25:47.397Z,99.90
2023-02-18T13:28:20.840Z,99.90
2023-02-18T13:30:52.511Z,99.90
2023-02-18T13:33:22.403Z,99.90
2023-02-18T13:35:55.116Z,99.90
2023-02-18T13:38:22.178Z,99.90
2023-02-18T13:40:49.925Z,99.90
2023-02-18T13:43:20.223Z,99.90
2023-02-18T13:46:06.167Z,99.90
2023-02-18T13:48:41.875Z,99.90
2023-02-18T13:51:09.632Z,99.90
2023-02-18T13:53:38.031Z,99.90
2023-02-18T13:56:17.208Z,99.90
2023-02-18T13:58:48.597Z,99.90
2023-02-18T14:01:20.836Z,99.90
2023-02-18T14:03:52.535Z,99.90
2023-02-18T14:06:21.635Z,99.90
2023-02-18T14:08:49.673Z,99.90
2023-02-18T14:11:16.832Z,99.90
2023-02-18T14:13:47.520Z,99.90
2023-02-18T14:16:14.783Z,99.90
2023-02-18T14:18:42.101Z,99.90
2023-02-18T14:21:12.326Z,99.90
2023-02-18T14:23:41.120Z,99.90
2023-02-18T14:26:14.301Z,99.90
2023-02-18T14:28:44.994Z,99.90
2023-02-18T14:31:12.766Z,99.90
2023-02-18T14:33:41.469Z,99.90
2023-02-18T14:36:27.303Z,99.90
2023-02-18T14:39:07.870Z,99.90
2023-02-18T14:41:59.100Z,99.90
2023-02-18T14:44:33.745Z,99.90
2023-02-18T14:47:00.909Z,99.90
2023-02-18T14:49:54.487Z,99.90
2023-02-18T14:52:30.523Z,99.90
2023-02-18T14:54:58.775Z,99.90
2023-02-18T14:57:45.329Z,99.90
2023-02-18T15:00:20.277Z,99.90
2023-02-18T15:02:51.996Z,99.90
2023-02-18T15:05:21.277Z,99.90
2023-02-18T15:07:57.278Z,99.90
2023-02-18T15:10:32.026Z,99.90
2023-02-18T15:13:00.728Z,99.90
2023-02-18T15:15:28.028Z,99.90
2023-02-18T15:17:56.338Z,99.90
2023-02-18T15:20:23.569Z,99.90
2023-02-18T15:22:50.882Z,99.90
2023-02-18T15:25:18.085Z,99.90
2023-02-18T15:27:47.014Z,99.90
2023-02-18T15:30:30.914Z,99.90
2023-02-18T15:32:59.299Z,99.90
2023-02-18T15:35:29.786Z,99.90
2023-02-18T15:37:58.259Z,99.90
2023-02-18T15:40:31.113Z,99.90
2023-02-18T15:43:00.204Z,99.90
2023-02-18T15:45:34.347Z,99.90
2023-02-18T15:48:02.073Z,99.90
2023-02-18T15:50:31.948Z,99.90
2023-02-18T15:53:28.503Z,99.90
2023-02-18T15:55:56.535Z,99.90
2023-02-18T15:58:27.173Z,99.90
2023-02-18T16:00:55.665Z,99.90
2023-02-18T16:03:24.855Z,99.90
2023-02-18T16:06:07.202Z,99.90
2023-02-18T16:08:34.682Z,99.90
2023-02-18T16:11:12.564Z,99.90
2023-02-18T16:13:45.860Z,99.90
2023-02-18T16:16:23.168Z,99.90
2023-02-18T16:18:50.467Z,99.90
2023-02-18T16:21:17.598Z,99.90
2023-02-18T16:24:05.141Z,99.90
2023-02-18T16:26:40.879Z,99.90
2023-02-18T16:29:14.095Z,99.90
2023-02-18T16:31:42.072Z,99.90
2023-02-18T16:34:09.336Z,99.90
2023-02-18T16:36:36.612Z,99.90
2023-02-18T16:39:03.807Z,99.90
2023-02-18T16:41:30.967Z,99.90
2023-02-18T16:43:58.112Z,99.90
2023-02-18T16:46:25.367Z,99.90
2023-02-18T16:48:55.698Z,99.90
2023-02-18T16:51:29.376Z,99.90
2023-02-18T16:53:56.695Z,99.90
2023-02-18T16:56:29.700Z,99.90
2023-02-18T16:58:57.505Z,99.90
2023-02-18T17:01:26.916Z,99.90
2023-02-18T17:03:54.385Z,99.90
2023-02-18T17:06:21.723Z,99.90
2023-02-18T17:08:49.073Z,99.90
2023-02-18T17:11:20.833Z,99.90
2023-02-18T17:13:48.997Z,99.90
2023-02-18T17:16:16.443Z,99.90
2023-02-18T17:18:43.848Z,99.90
2023-02-18T17:21:15.374Z,99.90
2023-02-18T17:23:42.817Z,99.90
2023-02-18T17:26:16.115Z,99.90
2023-02-18T17:28:43.264Z,99.90
2023-02-18T17:31:18.239Z,99.90
2023-02-18T17:33:46.004Z,99.90
2023-02-18T17:36:13.433Z,99.90
2023-02-18T17:38:40.739Z,99.90
2023-02-18T17:41:08.149Z,99.90
2023-02-18T17:43:35.398Z,99.90
2023-02-18T17:46:02.836Z,99.90
2023-02-18T17:48:30.099Z,99.90
2023-02-18T17:50:57.917Z,99.90
2023-02-18T17:53:25.151Z,99.90
2023-02-18T17:55:52.806Z,99.90
2023-02-18T17:58:19.932Z,99.90
2023-02-18T18:00:49.476Z,99.90
2023-02-18T18:03:17.059Z,99.90
2023-02-18T18:05:46.974Z,99.90
2023-02-18T18:08:15.588Z,99.90
2023-02-18T18:10:51.073Z,99.90
2023-02-18T18:13:20.348Z,99.90
2023-02-18T18:15:47.576Z,99.90
2023-02-18T18:18:14.868Z,99.90
2023-02-18T18:20:44.244Z,99.90
2023-02-18T18:23:12.164Z,99.90
2023-02-18T18:25:40.427Z,99.90
2023-02-18T18:28:08.291Z,99.90
2023-02-18T18:30:37.633Z,99.90
2023-02-18T18:33:11.812Z,99.90
2023-02-18T18:35:38.935Z,99.90
2023-02-18T18:38:06.044Z,99.90
2023-02-18T18:40:33.418Z,99.90
2023-02-18T18:43:01.632Z,99.90
2023-02-18T18:45:31.754Z,99.90
2023-02-18T18:47:58.934Z,99.90
2023-02-18T18:50:27.132Z,99.90
2023-02-18T18:52:54.499Z,99.90
2023-02-18T18:55:24.004Z,99.90
2023-02-18T18:57:51.484Z,99.90
2023-02-18T19:00:19.523Z,99.90
2023-02-18T19:02:46.768Z,99.90
2023-02-18T19:05:20.033Z,99.90
2023-02-18T19:07:47.133Z,99.90
2023-02-18T19:10:14.446Z,99.90
2023-02-18T19:12:41.678Z,99.90
2023-02-18T19:15:16.944Z,99.90
2023-02-18T19:17:48.634Z,99.90
2023-02-18T19:20:17.146Z,99.90
2023-02-18T19:22:44.370Z,99.90
2023-02-18T19:25:11.753Z,99.90
2023-02-18T19:27:40.251Z,99.90
2023-02-18T19:30:08.369Z,99.90
2023-02-18T19:32:35.438Z,99.90
2023-02-18T19:35:02.703Z,99.90
2023-02-18T19:37:36.499Z,99.90
2023-02-18T19:40:04.616Z,99.90
2023-02-18T19:42:31.696Z,99.90
2023-02-18T19:44:58.977Z,99.90
2023-02-18T19:47:26.780Z,99.90
2023-02-18T19:49:54.331Z,99.90
2023-02-18T19:52:21.821Z,99.90
2023-02-18T19:54:48.970Z,99.90
2023-02-18T19:57:16.104Z,99.90
2023-02-18T19:59:43.433Z,99.90
2023-02-18T20:02:14.889Z,99.90
2023-02-18T20:04:43.020Z,99.90
2023-02-18T20:07:10.865Z,99.90
2023-02-18T20:09:38.182Z,99.90
2023-02-18T20:12:05.943Z,99.90
2023-02-18T20:14:33.333Z,99.90
2023-02-18T20:17:00.479Z,99.90
2023-02-18T20:19:29.384Z,99.90
2023-02-18T20:21:57.546Z,99.90
2023-02-18T20:24:24.716Z,99.90
2023-02-18T20:26:51.897Z,99.90
2023-02-18T20:29:21.742Z,99.90
2023-02-18T20:31:49.499Z,99.90
2023-02-18T20:34:16.716Z,99.90
2023-02-18T20:36:45.497Z,99.90
2023-02-18T20:39:16.245Z,99.90
2023-02-18T20:41:44.172Z,99.90
2023-02-18T20:44:11.503Z,99.90
2023-02-18T20:46:39.572Z,99.90
2023-02-18T20:49:08.584Z,99.90
2023-02-18T20:51:36.003Z,99.90
2023-02-18T20:54:09.176Z,99.90
2023-02-18T20:56:37.233Z,99.90
2023-02-18T20:59:04.665Z,99.90
2023-02-18T21:01:32.261Z,99.90
2023-02-18T21:03:59.543Z,99.90
2023-02-18T21:06:27.380Z,99.90
2023-02-18T21:08:54.567Z,99.90
2023-02-18T21:11:22.892Z,99.90
2023-02-18T21:13:50.918Z,99.90
2023-02-18T21:16:18.793Z,99.90
2023-02-18T21:18:46.272Z,99.90
2023-02-18T21:21:14.034Z,99.90
2023-02-18T21:23:41.552Z,99.90
2023-02-18T21:26:13.282Z,99.90
2023-02-18T21:28:40.484Z,99.90
2023-02-18T21:31:14.684Z,99.90
2023-02-18T21:33:41.887Z,99.90
2023-02-18T21:36:09.039Z,99.90
2023-02-18T21:38:36.136Z,99.90
2023-02-18T21:41:04.480Z,99.90
2023-02-18T21:43:31.604Z,99.90
2023-02-18T21:46:09.114Z,99.90
2023-02-18T21:48:55.261Z,99.90
2023-02-18T21:51:41.210Z,99.90
2023-02-18T21:54:08.422Z,99.90
2023-02-18T21:56:35.860Z,99.90
2023-02-18T21:59:03.327Z,99.90
2023-02-18T22:01:30.576Z,99.90
2023-02-18T22:03:57.769Z,99.90
2023-02-18T22:06:24.896Z,99.90
2023-02-18T22:08:52.115Z,99.90
2023-02-18T22:11:19.452Z,99.90
2023-02-18T22:13:46.591Z,99.90
2023-02-18T22:16:13.753Z,99.90
2023-02-18T22:18:40.861Z,99.90
2023-02-18T22:21:09.041Z,99.90
2023-02-18T22:23:36.593Z,99.90
2023-02-18T22:26:07.270Z,99.90
2023-02-18T22:28:35.064Z,99.90
2023-02-18T22:31:12.418Z,99.90
2023-02-18T22:33:41.287Z,99.90
2023-02-18T22:36:09.005Z,99.90
2023-02-18T22:38:37.720Z,99.90
2023-02-18T22:41:05.527Z,99.90
2023-02-18T22:43:32.769Z,99.90
2023-02-18T22:46:07.042Z,99.90
2023-02-18T22:48:34.984Z,99.90
2023-02-18T22:51:05.745Z,99.90
2023-02-18T22:53:33.523Z,99.90
2023-02-18T22:56:01.559Z,99.90
2023-02-18T22:58:28.723Z,99.90
2023-02-18T23:00:55.889Z,99.90
2023-02-18T23:03:23.058Z,99.90
2023-02-18T23:05:50.395Z,99.90
2023-02-18T23:08:17.681Z,99.90
2023-02-18T23:10:44.937Z,99.90
2023-02-18T23:13:12.055Z,99.90
2023-02-18T23:15:39.176Z,99.90
2023-02-18T23:18:06.375Z,99.90
2023-02-18T23:20:51.987Z,99.90
2023-02-18T23:23:19.113Z,99.90
2023-02-18T23:25:46.277Z,99.90
2023-02-18T23:28:13.444Z,99.90
2023-02-18T23:30:41.669Z,99.90
2023-02-18T23:33:08.833Z,99.90
2023-02-18T23:35:35.941Z,99.90
2023-02-18T23:38:06.163Z,99.90
2023-02-18T23:40:33.403Z,99.90
2023-02-18T23:43:00.581Z,99.90
2023-02-18T23:45:27.765Z,99.90
2023-02-18T23:47:55.040Z,99.90
2023-02-18T23:50:22.141Z,99.90
2023-02-18T23:52:50.361Z,99.90
2023-02-18T23:55:17.597Z,99.90
2023-02-18T23:57:44.750Z,99.90
